createdAt,value
2024-02-09T00:00:33.536Z,4.76
2024-02-09T00:03:02.015Z,4.78
2024-02-09T00:05:32.245Z,4.78
2024-02-09T00:08:06.711Z,4.73
2024-02-09T00:10:38.399Z,4.69
2024-02-09T00:13:06.523Z,4.66
2024-02-09T00:15:34.926Z,4.66
2024-02-09T00:18:05.002Z,4.68
2024-02-09T00:20:32.550Z,4.70
2024-02-09T00:22:59.930Z,4.71
2024-02-09T00:25:28.155Z,4.68
2024-02-09T00:27:56.003Z,4.65
2024-02-09T00:30:26.317Z,4.62
2024-02-09T00:32:53.713Z,4.61
2024-02-09T00:35:30.206Z,4.57
2024-02-09T00:38:01.780Z,4.59
2024-02-09T00:40:32.838Z,4.55
2024-02-09T00:43:04.385Z,4.50
2024-02-09T00:45:35.805Z,4.48
2024-02-09T00:48:04.620Z,4.44
2024-02-09T00:50:32.831Z,4.40
2024-02-09T00:53:02.150Z,4.36
2024-02-09T00:55:31.062Z,4.38
2024-02-09T00:57:59.170Z,4.41
2024-02-09T01:00:29.316Z,4.43
2024-02-09T01:02:57.852Z,4.43
2024-02-09T01:05:26.151Z,4.41
2024-02-09T01:07:53.289Z,4.39
2024-02-09T01:10:20.783Z,4.35
2024-02-09T01:13:03.834Z,4.34
2024-02-09T01:15:46.164Z,4.34
2024-02-09T01:18:28.587Z,4.36
2024-02-09T01:21:10.914Z,4.38
2024-02-09T01:23:54.090Z,4.34
2024-02-09T01:26:36.495Z,4.23
2024-02-09T01:29:18.825Z,4.13
2024-02-09T01:32:01.102Z,4.10
2024-02-09T01:34:43.688Z,4.08
2024-02-09T01:37:26.134Z,4.05
2024-02-09T01:40:09.090Z,4.10
2024-02-09T01:42:51.215Z,4.13
2024-02-09T01:45:33.694Z,4.13
2024-02-09T01:48:16.414Z,4.13
2024-02-09T01:50:59.290Z,4.11
2024-02-09T01:53:42.119Z,4.09
2024-02-09T01:56:24.405Z,4.11
2024-02-09T01:59:07.277Z,4.13
2024-02-09T02:01:51.057Z,4.14
2024-02-09T02:04:34.089Z,4.19
2024-02-09T02:07:16.661Z,4.19
2024-02-09T02:09:59.560Z,4.11
2024-02-09T02:12:42.402Z,4.08
2024-02-09T02:15:25.111Z,4.06
2024-02-09T02:18:07.525Z,4.10
2024-02-09T02:20:50.112Z,4.11
2024-02-09T02:23:42.848Z,4.13
2024-02-09T02:26:25.068Z,4.10
2024-02-09T02:29:11.043Z,4.08
2024-02-09T02:31:53.257Z,4.07
2024-02-09T02:34:35.664Z,4.02
2024-02-09T02:37:17.827Z,4.04
2024-02-09T02:40:00.320Z,4.05
2024-02-09T02:42:27.278Z,4.08
2024-02-09T02:44:55.817Z,4.09
2024-02-09T02:47:23.856Z,4.07
2024-02-09T02:50:06.569Z,4.10
2024-02-09T02:52:49.231Z,4.16
2024-02-09T02:55:31.602Z,4.24
2024-02-09T02:58:14.531Z,4.26
2024-02-09T03:00:57.181Z,4.32
2024-02-09T03:03:39.477Z,4.36
2024-02-09T03:06:07.295Z,4.38
2024-02-09T03:08:46.904Z,4.37
2024-02-09T03:11:15.861Z,4.37
2024-02-09T03:13:44.111Z,4.37
2024-02-09T03:16:11.208Z,4.42
2024-02-09T03:18:38.320Z,4.46
2024-02-09T03:21:05.473Z,4.51
2024-02-09T03:23:32.453Z,4.51
2024-02-09T03:25:59.532Z,4.54
2024-02-09T03:28:26.665Z,4.54
2024-02-09T03:30:53.633Z,4.58
2024-02-09T03:33:20.768Z,4.64
2024-02-09T03:35:47.935Z,4.72
2024-02-09T03:38:15.553Z,4.71
2024-02-09T03:40:42.948Z,4.74
2024-02-09T03:43:10.118Z,4.75
2024-02-09T03:45:43.339Z,4.74
2024-02-09T03:48:11.487Z,4.70
2024-02-09T03:50:38.879Z,4.68
2024-02-09T03:53:08.485Z,4.69
2024-02-09T03:55:36.481Z,4.73
2024-02-09T03:58:03.556Z,4.74
2024-02-09T04:00:30.637Z,4.74
2024-02-09T04:02:57.710Z,4.74
2024-02-09T04:05:24.932Z,4.73
2024-02-09T04:07:52.308Z,4.74
2024-02-09T04:12:50.585Z,4.79
2024-02-09T04:15:17.612Z,4.82
2024-02-09T04:17:45.766Z,4.88
2024-02-09T04:20:15.307Z,4.90
2024-02-09T04:22:42.329Z,4.90
2024-02-09T04:25:09.376Z,4.90
2024-02-09T04:27:37.465Z,4.89
2024-02-09T04:30:05.000Z,4.91
2024-02-09T04:32:32.053Z,4.94
2024-02-09T04:34:59.224Z,4.97
2024-02-09T04:37:26.270Z,5.03
2024-02-09T04:39:53.211Z,5.09
2024-02-09T04:42:22.079Z,5.14
2024-02-09T04:44:49.051Z,5.19
2024-02-09T04:47:16.215Z,5.22
2024-02-09T04:49:45.746Z,5.26
2024-02-09T04:52:15.021Z,5.31
2024-02-09T04:54:42.179Z,5.33
2024-02-09T04:57:09.284Z,5.39
2024-02-09T04:59:36.258Z,5.42
2024-02-09T05:02:03.284Z,5.41
2024-02-09T05:04:30.270Z,5.38
2024-02-09T05:06:57.344Z,5.32
2024-02-09T05:09:31.451Z,5.26
2024-02-09T05:12:00.060Z,5.21
2024-02-09T05:14:27.222Z,5.17
2024-02-09T05:16:55.303Z,5.14
2024-02-09T05:19:22.438Z,5.09
2024-02-09T05:21:49.524Z,5.04
2024-02-09T05:24:16.521Z,4.99
2024-02-09T05:26:43.495Z,4.93
2024-02-09T05:29:10.441Z,4.90
2024-02-09T05:31:43.659Z,4.86
2024-02-09T05:34:11.139Z,4.81
2024-02-09T05:36:38.336Z,4.80
2024-02-09T05:39:07.973Z,4.78
2024-02-09T05:41:34.993Z,4.76
2024-02-09T05:44:02.121Z,4.72
2024-02-09T05:46:29.649Z,4.68
2024-02-09T05:48:57.614Z,4.64
2024-02-09T05:51:25.379Z,4.63
2024-02-09T05:53:52.561Z,4.64
2024-02-09T05:56:21.523Z,4.65
2024-02-09T05:58:49.689Z,4.66
2024-02-09T06:01:16.838Z,4.67
2024-02-09T06:03:44.440Z,4.67
2024-02-09T06:06:13.992Z,4.64
2024-02-09T06:08:41.142Z,4.63
2024-02-09T06:11:08.136Z,4.63
2024-02-09T06:13:35.686Z,4.63
2024-02-09T06:16:03.086Z,4.65
2024-02-09T06:18:30.241Z,4.68
2024-02-09T06:20:59.904Z,4.70
2024-02-09T06:23:26.907Z,4.71
2024-02-09T06:25:54.086Z,4.69
2024-02-09T06:28:21.213Z,4.69
2024-02-09T06:30:49.036Z,4.72
2024-02-09T06:33:18.228Z,4.74
2024-02-09T06:35:45.371Z,4.78
2024-02-09T06:38:13.527Z,4.80
2024-02-09T06:40:41.250Z,4.83
2024-02-09T06:43:08.788Z,4.84
2024-02-09T06:45:36.763Z,4.86
2024-02-09T06:48:07.320Z,4.90
2024-02-09T06:50:37.221Z,4.96
2024-02-09T06:53:10.436Z,5.04
2024-02-09T06:55:38.033Z,5.09
2024-02-09T06:58:05.594Z,5.14
2024-02-09T07:00:38.561Z,5.17
2024-02-09T07:03:05.914Z,5.21
2024-02-09T07:05:35.688Z,5.26
2024-02-09T07:08:04.092Z,5.31
2024-02-09T07:10:31.505Z,5.38
2024-02-09T07:12:58.719Z,5.46
2024-02-09T07:15:25.875Z,5.53
2024-02-09T07:17:57.690Z,5.58
2024-02-09T07:20:25.016Z,5.62
2024-02-09T07:22:52.449Z,5.69
2024-02-09T07:25:20.681Z,5.74
2024-02-09T07:27:48.257Z,5.80
2024-02-09T07:30:16.638Z,5.87
2024-02-09T07:32:43.717Z,5.92
2024-02-09T07:35:12.322Z,5.97
2024-02-09T07:37:39.522Z,6.03
2024-02-09T07:40:09.845Z,6.07
2024-02-09T07:42:37.089Z,6.10
2024-02-09T07:45:05.959Z,6.14
2024-02-09T07:47:33.203Z,6.19
2024-02-09T07:50:00.442Z,6.22
2024-02-09T07:52:30.759Z,6.23
2024-02-09T07:54:58.267Z,6.27
2024-02-09T07:57:27.231Z,6.31
2024-02-09T07:59:54.199Z,6.33
2024-02-09T08:02:21.247Z,6.38
2024-02-09T08:04:48.273Z,6.46
2024-02-09T08:07:16.624Z,6.53
2024-02-09T08:09:43.579Z,6.63
2024-02-09T08:12:13.687Z,6.71
2024-02-09T08:14:41.437Z,6.79
2024-02-09T08:17:23.794Z,6.94
2024-02-09T08:19:52.539Z,7.09
2024-02-09T08:22:24.147Z,7.24
2024-02-09T08:24:51.621Z,7.36
2024-02-09T08:27:18.610Z,7.46
2024-02-09T08:29:45.564Z,7.55
2024-02-09T08:32:12.743Z,7.65
2024-02-09T08:34:39.820Z,7.75
2024-02-09T08:37:08.275Z,7.82
2024-02-09T08:39:35.232Z,7.87
2024-02-09T08:42:02.213Z,7.89
2024-02-09T08:44:29.185Z,7.95
2024-02-09T08:46:56.712Z,7.97
2024-02-09T08:49:23.884Z,7.97
2024-02-09T08:51:51.467Z,7.96
2024-02-09T08:54:18.528Z,7.96
2024-02-09T08:56:45.463Z,7.98
2024-02-09T08:59:14.246Z,8.04
2024-02-09T09:01:42.485Z,8.13
2024-02-09T09:04:09.673Z,8.22
2024-02-09T09:06:36.732Z,8.30
2024-02-09T09:09:04.992Z,8.40
2024-02-09T09:11:32.049Z,8.50
2024-02-09T09:13:58.970Z,8.60
2024-02-09T09:16:27.557Z,8.69
2024-02-09T09:18:54.701Z,8.80
2024-02-09T09:21:21.815Z,8.95
2024-02-09T09:23:48.845Z,9.09
2024-02-09T09:26:22.625Z,9.19
2024-02-09T09:28:55.968Z,9.34
2024-02-09T09:31:23.083Z,9.45
2024-02-09T09:33:50.011Z,9.54
2024-02-09T09:36:17.114Z,9.59
2024-02-09T09:38:46.587Z,9.58
2024-02-09T09:41:14.361Z,9.53
2024-02-09T09:43:41.604Z,9.43
2024-02-09T09:46:10.586Z,9.41
2024-02-09T09:48:39.268Z,9.40
2024-02-09T09:51:06.949Z,9.41
2024-02-09T09:53:37.927Z,9.47
2024-02-09T09:56:08.057Z,9.49
2024-02-09T09:58:37.189Z,9.51
2024-02-09T10:01:09.530Z,9.55
2024-02-09T10:03:39.107Z,9.57
2024-02-09T10:06:06.867Z,9.62
2024-02-09T10:08:37.562Z,9.67
2024-02-09T10:11:07.926Z,9.73
2024-02-09T10:13:36.927Z,9.79
2024-02-09T10:16:05.097Z,9.80
2024-02-09T10:18:35.421Z,9.83
2024-02-09T10:21:03.761Z,9.88
2024-02-09T10:23:31.260Z,9.97
2024-02-09T10:26:02.261Z,10.10
2024-02-09T10:28:30.750Z,10.21
2024-02-09T10:31:02.296Z,10.30
2024-02-09T10:33:29.455Z,10.41
2024-02-09T10:35:58.050Z,10.54
2024-02-09T10:38:26.741Z,10.65
2024-02-09T10:40:56.856Z,10.78
2024-02-09T10:43:25.354Z,10.89
2024-02-09T10:45:58.157Z,10.91
2024-02-09T10:48:36.460Z,10.90
2024-02-09T10:51:07.230Z,10.89
2024-02-09T10:53:37.033Z,10.89
2024-02-09T10:56:07.216Z,10.92
2024-02-09T10:58:35.337Z,10.93
2024-02-09T11:01:06.051Z,10.92
2024-02-09T11:03:34.417Z,10.92
2024-02-09T11:06:04.300Z,10.92
2024-02-09T11:08:34.662Z,10.96
2024-02-09T11:11:03.530Z,11.03
2024-02-09T11:13:32.240Z,11.08
2024-02-09T11:15:59.482Z,11.13
2024-02-09T11:18:35.468Z,11.17
2024-02-09T11:21:12.837Z,11.21
2024-02-09T11:23:42.044Z,11.22
2024-02-09T11:26:12.119Z,11.26
2024-02-09T11:28:39.195Z,11.32
2024-02-09T11:31:12.401Z,11.44
2024-02-09T11:33:43.301Z,11.55
2024-02-09T11:36:10.500Z,11.64
2024-02-09T11:38:37.590Z,11.75
2024-02-09T11:41:04.879Z,11.87
2024-02-09T11:43:32.883Z,11.97
2024-02-09T11:46:00.267Z,12.14
2024-02-09T11:48:27.246Z,12.36
2024-02-09T11:50:58.817Z,12.49
2024-02-09T11:53:26.736Z,12.61
2024-02-09T11:55:54.516Z,12.76
2024-02-09T11:58:21.626Z,12.86
2024-02-09T12:00:52.257Z,12.88
2024-02-09T12:03:19.562Z,12.89
2024-02-09T12:05:48.251Z,12.89
2024-02-09T12:08:20.436Z,12.92
2024-02-09T12:10:48.101Z,13.00
2024-02-09T12:13:15.368Z,13.11
2024-02-09T12:15:42.447Z,13.23
2024-02-09T12:18:10.326Z,13.32
2024-02-09T12:20:37.657Z,13.32
2024-02-09T12:23:05.693Z,13.29
2024-02-09T12:25:37.690Z,13.28
2024-02-09T12:28:07.137Z,13.23
2024-02-09T12:30:36.618Z,13.18
2024-02-09T12:33:05.897Z,13.09
2024-02-09T12:35:33.132Z,12.99
2024-02-09T12:38:00.190Z,12.94
2024-02-09T12:40:27.403Z,12.91
2024-02-09T12:42:55.221Z,12.91
2024-02-09T12:45:28.025Z,12.87
2024-02-09T12:47:55.780Z,12.81
2024-02-09T12:50:23.376Z,12.78
2024-02-09T12:52:51.893Z,12.76
2024-02-09T12:55:21.376Z,12.76
2024-02-09T12:57:49.639Z,12.79
2024-02-09T13:00:16.889Z,12.82
2024-02-09T13:02:43.952Z,12.82
2024-02-09T13:05:11.712Z,12.81
2024-02-09T13:07:39.637Z,12.79
2024-02-09T13:10:09.140Z,12.83
2024-02-09T13:12:38.854Z,12.84
2024-02-09T13:15:09.385Z,12.87
2024-02-09T13:17:36.745Z,12.86
2024-02-09T13:20:08.090Z,12.84
2024-02-09T13:22:35.999Z,12.81
2024-02-09T13:25:03.106Z,12.77
2024-02-09T13:27:30.971Z,12.73
2024-02-09T13:30:00.101Z,12.74
2024-02-09T13:32:29.316Z,12.71
2024-02-09T13:34:56.560Z,12.68
2024-02-09T13:37:23.730Z,12.65
2024-02-09T13:42:37.970Z,12.57
2024-02-09T13:45:06.378Z,12.54
2024-02-09T13:47:33.794Z,12.52
2024-02-09T13:50:00.823Z,12.49
2024-02-09T13:52:28.556Z,12.44
2024-02-09T13:54:56.799Z,12.36
2024-02-09T13:57:23.747Z,12.29
2024-02-09T13:59:51.474Z,12.24
2024-02-09T14:02:18.633Z,12.21
2024-02-09T14:04:45.625Z,12.22
2024-02-09T14:07:12.638Z,12.22
2024-02-09T14:09:39.909Z,12.18
2024-02-09T14:12:08.373Z,12.14
2024-02-09T14:14:35.325Z,12.08
2024-02-09T14:17:02.873Z,12.07
2024-02-09T14:19:29.916Z,12.07
2024-02-09T14:21:57.068Z,12.04
2024-02-09T14:24:23.996Z,12.04
2024-02-09T14:26:51.586Z,12.02
2024-02-09T14:29:18.633Z,11.96
2024-02-09T14:31:45.661Z,11.92
2024-02-09T14:34:12.907Z,11.92
2024-02-09T14:36:41.101Z,11.92
2024-02-09T14:39:08.852Z,11.92
2024-02-09T14:41:40.839Z,11.91
2024-02-09T14:44:08.395Z,11.87
2024-02-09T14:46:43.722Z,11.85
2024-02-09T14:49:11.887Z,11.84
2024-02-09T14:51:40.103Z,11.85
2024-02-09T14:54:07.024Z,11.83
2024-02-09T14:56:41.651Z,11.79
2024-02-09T14:59:15.456Z,11.77
2024-02-09T15:01:42.569Z,11.72
2024-02-09T15:04:11.286Z,11.69
2024-02-09T15:06:45.422Z,11.65
2024-02-09T15:09:12.937Z,11.61
2024-02-09T15:11:42.281Z,11.58
2024-02-09T15:14:10.943Z,11.54
2024-02-09T15:16:38.513Z,11.49
2024-02-09T15:19:06.525Z,11.39
2024-02-09T15:21:33.889Z,11.28
2024-02-09T15:24:01.039Z,11.20
2024-02-09T15:26:28.145Z,11.14
2024-02-09T15:28:57.613Z,11.09
2024-02-09T15:31:24.934Z,11.01
2024-02-09T15:33:52.593Z,10.95
2024-02-09T15:36:19.981Z,10.88
2024-02-09T15:38:47.032Z,10.81
2024-02-09T15:41:16.094Z,10.75
2024-02-09T15:43:43.382Z,10.68
2024-02-09T15:46:17.208Z,10.63
2024-02-09T15:48:46.404Z,10.57
2024-02-09T15:51:24.299Z,10.49
2024-02-09T15:53:54.162Z,10.40
2024-02-09T15:56:25.769Z,10.30
2024-02-09T15:58:54.058Z,10.21
2024-02-09T16:01:21.142Z,10.11
2024-02-09T16:03:49.586Z,10.03
2024-02-09T16:06:16.713Z,9.98
2024-02-09T16:08:44.978Z,9.95
2024-02-09T16:11:12.132Z,9.90
2024-02-09T16:13:40.397Z,9.85
2024-02-09T16:16:09.175Z,9.83
2024-02-09T16:18:36.984Z,9.83
2024-02-09T16:21:05.900Z,9.83
2024-02-09T16:23:32.811Z,9.84
2024-02-09T16:26:05.247Z,9.85
2024-02-09T16:28:34.243Z,9.85
2024-02-09T16:31:01.642Z,9.83
2024-02-09T16:33:29.103Z,9.79
2024-02-09T16:35:56.260Z,9.74
2024-02-09T16:38:25.485Z,9.68
2024-02-09T16:40:52.653Z,9.63
2024-02-09T16:43:21.359Z,9.59
2024-02-09T16:45:48.492Z,9.58
2024-02-09T16:48:17.208Z,9.56
2024-02-09T16:50:44.785Z,9.53
2024-02-09T16:53:17.128Z,9.51
2024-02-09T16:55:46.803Z,9.44
2024-02-09T16:58:13.860Z,9.37
2024-02-09T17:00:40.903Z,9.30
2024-02-09T17:03:07.808Z,9.22
2024-02-09T17:05:35.079Z,9.17
2024-02-09T17:08:08.814Z,9.14
2024-02-09T17:10:37.251Z,9.13
2024-02-09T17:13:04.412Z,9.15
2024-02-09T17:15:34.082Z,9.15
2024-02-09T17:18:01.216Z,9.14
2024-02-09T17:20:28.420Z,9.14
2024-02-09T17:22:55.750Z,9.13
2024-02-09T17:25:22.794Z,9.11
2024-02-09T17:27:50.037Z,9.11
2024-02-09T17:30:17.163Z,9.10
2024-02-09T17:32:44.253Z,9.08
2024-02-09T17:35:11.380Z,9.05
2024-02-09T17:37:38.548Z,9.00
2024-02-09T17:40:06.942Z,8.96
2024-02-09T17:42:33.935Z,8.94
2024-02-09T17:45:00.919Z,8.91
2024-02-09T17:47:27.901Z,8.89
2024-02-09T17:49:55.081Z,8.87
2024-02-09T17:52:23.280Z,8.83
2024-02-09T17:54:50.348Z,8.80
2024-02-09T17:57:17.459Z,8.75
2024-02-09T17:59:44.439Z,8.71
2024-02-09T18:02:11.494Z,8.68
2024-02-09T18:04:39.271Z,8.66
2024-02-09T18:07:06.538Z,8.65
2024-02-09T18:09:33.518Z,8.62
2024-02-09T18:12:01.553Z,8.58
2024-02-09T18:14:29.674Z,8.52
2024-02-09T18:16:56.745Z,8.45
2024-02-09T18:19:24.174Z,8.41
2024-02-09T18:21:54.937Z,8.37
2024-02-09T18:24:21.919Z,8.35
2024-02-09T18:26:48.887Z,8.37
2024-02-09T18:29:18.118Z,8.38
2024-02-09T18:31:45.444Z,8.38
2024-02-09T18:34:12.505Z,8.37
2024-02-09T18:36:39.702Z,8.33
2024-02-09T18:39:06.686Z,8.28
2024-02-09T18:41:33.634Z,8.23
2024-02-09T18:44:00.761Z,8.21
2024-02-09T18:46:28.903Z,8.19
2024-02-09T18:48:55.891Z,8.20
2024-02-09T18:51:23.056Z,8.20
2024-02-09T18:53:49.962Z,8.21
2024-02-09T18:56:17.844Z,8.20
2024-02-09T18:58:47.110Z,8.18
2024-02-09T19:01:15.175Z,8.16
2024-02-09T19:03:43.299Z,8.15
2024-02-09T19:06:10.362Z,8.14
2024-02-09T19:08:37.432Z,8.15
2024-02-09T19:11:05.325Z,8.15
2024-02-09T19:13:34.107Z,8.16
2024-02-09T19:16:01.476Z,8.16
2024-02-09T19:18:28.446Z,8.17
2024-02-09T19:20:55.469Z,8.17
2024-02-09T19:23:22.826Z,8.18
2024-02-09T19:25:51.181Z,8.20
2024-02-09T19:28:19.111Z,8.20
2024-02-09T19:30:46.875Z,8.22
2024-02-09T19:33:15.243Z,8.25
2024-02-09T19:35:43.106Z,8.25
2024-02-09T19:38:10.030Z,8.23
2024-02-09T19:40:37.604Z,8.16
2024-02-09T19:43:04.755Z,8.07
2024-02-09T19:45:32.683Z,8.01
2024-02-09T19:48:01.466Z,7.98
2024-02-09T19:50:28.511Z,7.94
2024-02-09T19:52:55.611Z,7.93
2024-02-09T19:55:22.732Z,7.93
2024-02-09T19:57:50.321Z,7.95
2024-02-09T20:00:17.789Z,7.96
2024-02-09T20:02:48.263Z,7.98
2024-02-09T20:05:21.313Z,7.99
2024-02-09T20:07:48.424Z,7.98
2024-02-09T20:10:15.494Z,7.98
2024-02-09T20:12:42.910Z,7.99
2024-02-09T20:15:17.492Z,8.01
2024-02-09T20:17:45.947Z,8.05
2024-02-09T20:20:18.907Z,8.06
2024-02-09T20:22:49.914Z,8.05
2024-02-09T20:25:17.605Z,8.04
2024-02-09T20:27:45.642Z,7.99
2024-02-09T20:30:13.975Z,7.97
2024-02-09T20:35:27.428Z,7.96
2024-02-09T20:37:55.677Z,7.98
2024-02-09T20:40:23.207Z,7.99
2024-02-09T20:42:52.634Z,8.02
2024-02-09T20:45:20.228Z,8.03
2024-02-09T20:47:49.222Z,8.02
2024-02-09T20:50:18.149Z,7.99
2024-02-09T20:52:50.143Z,7.97
2024-02-09T20:55:20.813Z,7.93
2024-02-09T20:57:50.326Z,7.92
2024-02-09T21:00:20.259Z,7.90
2024-02-09T21:02:49.831Z,7.86
2024-02-09T21:05:20.765Z,7.81
2024-02-09T21:07:49.472Z,7.78
2024-02-09T21:10:17.646Z,7.73
2024-02-09T21:12:47.273Z,7.69
2024-02-09T21:15:15.362Z,7.67
2024-02-09T21:17:44.901Z,7.67
2024-02-09T21:20:13.642Z,7.68
2024-02-09T21:22:43.745Z,7.70
2024-02-09T21:25:11.743Z,7.71
2024-02-09T21:27:39.316Z,7.74
2024-02-09T21:30:10.252Z,7.74
2024-02-09T21:32:40.077Z,7.74
2024-02-09T21:35:08.304Z,7.68
2024-02-09T21:37:35.245Z,7.60
2024-02-09T21:40:02.949Z,7.54
2024-02-09T21:42:30.896Z,7.51
2024-02-09T21:45:01.157Z,7.51
2024-02-09T21:47:31.396Z,7.54
2024-02-09T21:50:01.471Z,7.57
2024-02-09T21:52:29.189Z,7.59
2024-02-09T21:54:56.409Z,7.58
2024-02-09T21:57:23.336Z,7.53
2024-02-09T21:59:50.251Z,7.47
2024-02-09T22:02:20.697Z,7.43
2024-02-09T22:04:52.996Z,7.39
2024-02-09T22:07:20.425Z,7.38
2024-02-09T22:09:47.575Z,7.40
2024-02-09T22:12:27.372Z,7.43
2024-02-09T22:14:57.102Z,7.46
2024-02-09T22:17:25.649Z,7.48
2024-02-09T22:19:54.774Z,7.47
2024-02-09T22:22:22.490Z,7.44
2024-02-09T22:24:49.850Z,7.45
2024-02-09T22:27:16.909Z,7.45
2024-02-09T22:29:47.338Z,7.45
2024-02-09T22:32:15.106Z,7.48
2024-02-09T22:34:44.893Z,7.51
2024-02-09T22:37:13.325Z,7.53
2024-02-09T22:39:43.327Z,7.53
2024-02-09T22:42:11.717Z,7.52
2024-02-09T22:44:39.426Z,7.52
2024-02-09T22:47:07.694Z,7.52
2024-02-09T22:49:35.045Z,7.53
2024-02-09T22:52:02.719Z,7.54
2024-02-09T22:54:30.114Z,7.55
2024-02-09T22:56:57.119Z,7.56
2024-02-09T22:59:24.186Z,7.61
2024-02-09T23:01:53.983Z,7.63
2024-02-09T23:04:25.212Z,7.66
2024-02-09T23:06:52.898Z,7.69
2024-02-09T23:09:20.427Z,7.73
2024-02-09T23:11:48.169Z,7.77
2024-02-09T23:14:19.057Z,7.80
2024-02-09T23:16:49.614Z,7.79
2024-02-09T23:19:22.082Z,7.74
2024-02-09T23:21:51.591Z,7.71
2024-02-09T23:24:26.966Z,7.66
2024-02-09T23:26:55.927Z,7.63
2024-02-09T23:29:25.799Z,7.62
2024-02-09T23:31:57.130Z,7.61
2024-02-09T23:34:24.532Z,7.63
2024-02-09T23:36:54.163Z,7.65
2024-02-09T23:39:23.056Z,7.68
2024-02-09T23:41:50.499Z,7.70
2024-02-09T23:44:24.705Z,7.69
2024-02-09T23:46:52.100Z,7.66
2024-02-09T23:49:19.829Z,7.64
2024-02-09T23:51:50.287Z,7.64
2024-02-09T23:54:18.326Z,7.64
2024-02-09T23:56:46.280Z,7.66
2024-02-09T23:59:14.052Z,7.69
